sensor_id;sensor_type;location;lat;lon;timestamp;P1;durP1;ratioP1;P2;durP2;ratioP2
19664;SDS011;9980;51.020;7.772;2022-12-10T00:01:29;17.77;;;15.20;;
19664;SDS011;9980;51.020;7.772;2022-12-10T00:03:58;18.10;;;15.13;;
19664;SDS011;9980;51.020;7.772;2022-12-10T00:06:26;20.53;;;15.27;;
19664;SDS011;9980;51.020;7.772;2022-12-10T00:08:55;19.90;;;15.97;;
19664;SDS011;9980;51.020;7.772;2022-12-10T00:11:22;18.67;;;15.43;;
19664;SDS011;9980;51.020;7.772;2022-12-10T00:13:50;22.80;;;16.17;;
19664;SDS011;9980;51.020;7.772;2022-12-10T00:16:19;19.10;;;16.10;;
19664;SDS011;9980;51.020;7.772;2022-12-10T00:18:48;19.03;;;16.07;;
19664;SDS011;9980;51.020;7.772;2022-12-10T00:21:20;19.87;;;16.40;;
19664;SDS011;9980;51.020;7.772;2022-12-10T00:23:52;20.80;;;16.10;;
19664;SDS011;9980;51.020;7.772;2022-12-10T00:26:21;19.20;;;15.50;;
19664;SDS011;9980;51.020;7.772;2022-12-10T00:28:51;21.57;;;16.53;;
19664;SDS011;9980;51.020;7.772;2022-12-10T00:31:20;19.13;;;15.70;;
19664;SDS011;9980;51.020;7.772;2022-12-10T00:33:50;18.93;;;14.90;;
19664;SDS011;9980;51.020;7.772;2022-12-10T00:36:23;20.13;;;16.53;;
19664;SDS011;9980;51.020;7.772;2022-12-10T00:39:00;17.03;;;15.23;;
19664;SDS011;9980;51.020;7.772;2022-12-10T00:41:29;19.80;;;15.07;;
19664;SDS011;9980;51.020;7.772;2022-12-10T00:43:55;23.57;;;17.27;;
19664;SDS011;9980;51.020;7.772;2022-12-10T00:46:22;25.13;;;17.17;;
19664;SDS011;9980;51.020;7.772;2022-12-10T00:48:48;21.57;;;16.87;;
19664;SDS011;9980;51.020;7.772;2022-12-10T00:51:19;21.37;;;16.47;;
19664;SDS011;9980;51.020;7.772;2022-12-10T00:53:48;19.37;;;15.90;;
19664;SDS011;9980;51.020;7.772;2022-12-10T00:56:18;19.57;;;16.17;;
19664;SDS011;9980;51.020;7.772;2022-12-10T00:58:48;23.20;;;17.07;;
19664;SDS011;9980;51.020;7.772;2022-12-10T01:03:57;30.40;;;17.90;;
19664;SDS011;9980;51.020;7.772;2022-12-10T01:06:35;25.57;;;18.57;;
19664;SDS011;9980;51.020;7.772;2022-12-10T01:09:09;24.87;;;18.10;;
19664;SDS011;9980;51.020;7.772;2022-12-10T01:11:39;31.57;;;20.03;;
19664;SDS011;9980;51.020;7.772;2022-12-10T01:14:09;27.00;;;19.80;;
19664;SDS011;9980;51.020;7.772;2022-12-10T01:16:39;28.83;;;18.90;;
19664;SDS011;9980;51.020;7.772;2022-12-10T01:19:06;29.40;;;19.03;;
19664;SDS011;9980;51.020;7.772;2022-12-10T01:21:33;30.57;;;19.73;;
19664;SDS011;9980;51.020;7.772;2022-12-10T01:24:00;28.60;;;18.90;;
19664;SDS011;9980;51.020;7.772;2022-12-10T01:26:29;29.53;;;19.67;;
19664;SDS011;9980;51.020;7.772;2022-12-10T01:28:59;24.93;;;18.93;;
19664;SDS011;9980;51.020;7.772;2022-12-10T01:31:28;29.00;;;20.70;;
19664;SDS011;9980;51.020;7.772;2022-12-10T01:33:58;31.07;;;20.80;;
19664;SDS011;9980;51.020;7.772;2022-12-10T01:36:27;34.03;;;20.83;;
19664;SDS011;9980;51.020;7.772;2022-12-10T01:39:03;36.90;;;20.57;;
19664;SDS011;9980;51.020;7.772;2022-12-10T01:41:33;31.50;;;20.10;;
19664;SDS011;9980;51.020;7.772;2022-12-10T01:46:40;42.50;;;23.00;;
19664;SDS011;9980;51.020;7.772;2022-12-10T01:49:13;28.40;;;18.17;;
19664;SDS011;9980;51.020;7.772;2022-12-10T01:52:00;24.57;;;18.20;;
19664;SDS011;9980;51.020;7.772;2022-12-10T01:54:31;29.10;;;19.23;;
19664;SDS011;9980;51.020;7.772;2022-12-10T01:57:17;22.00;;;15.27;;
19664;SDS011;9980;51.020;7.772;2022-12-10T01:59:52;48.03;;;17.67;;
19664;SDS011;9980;51.020;7.772;2022-12-10T02:05:30;22.63;;;16.07;;
19664;SDS011;9980;51.020;7.772;2022-12-10T02:08:29;23.40;;;17.07;;
19664;SDS011;9980;51.020;7.772;2022-12-10T02:13:50;35.17;;;18.93;;
19664;SDS011;9980;51.020;7.772;2022-12-10T02:23:02;32.73;;;17.43;;
19664;SDS011;9980;51.020;7.772;2022-12-10T02:31:43;29.90;;;18.07;;
19664;SDS011;9980;51.020;7.772;2022-12-10T02:34:17;30.47;;;16.97;;
19664;SDS011;9980;51.020;7.772;2022-12-10T02:36:48;26.50;;;18.30;;
19664;SDS011;9980;51.020;7.772;2022-12-10T02:39:20;41.03;;;18.10;;
19664;SDS011;9980;51.020;7.772;2022-12-10T02:41:56;22.07;;;17.03;;
19664;SDS011;9980;51.020;7.772;2022-12-10T02:44:27;25.13;;;17.33;;
19664;SDS011;9980;51.020;7.772;2022-12-10T02:46:57;62.07;;;19.00;;
19664;SDS011;9980;51.020;7.772;2022-12-10T02:49:31;29.97;;;17.20;;
19664;SDS011;9980;51.020;7.772;2022-12-10T02:52:12;39.07;;;25.80;;
19664;SDS011;9980;51.020;7.772;2022-12-10T02:54:44;31.47;;;20.03;;
19664;SDS011;9980;51.020;7.772;2022-12-10T02:57:40;21.57;;;16.13;;
19664;SDS011;9980;51.020;7.772;2022-12-10T03:00:27;25.07;;;18.13;;
19664;SDS011;9980;51.020;7.772;2022-12-10T03:05:55;42.53;;;29.93;;
19664;SDS011;9980;51.020;7.772;2022-12-10T03:11:09;36.83;;;25.27;;
19664;SDS011;9980;51.020;7.772;2022-12-10T03:16:26;24.17;;;18.03;;
19664;SDS011;9980;51.020;7.772;2022-12-10T03:19:06;21.47;;;16.50;;
19664;SDS011;9980;51.020;7.772;2022-12-10T03:21:39;27.40;;;16.23;;
19664;SDS011;9980;51.020;7.772;2022-12-10T03:24:10;26.80;;;16.20;;
19664;SDS011;9980;51.020;7.772;2022-12-10T03:26:37;21.80;;;16.63;;
19664;SDS011;9980;51.020;7.772;2022-12-10T03:29:27;21.57;;;16.10;;
19664;SDS011;9980;51.020;7.772;2022-12-10T03:32:00;22.23;;;17.03;;
19664;SDS011;9980;51.020;7.772;2022-12-10T03:34:27;18.37;;;14.07;;
19664;SDS011;9980;51.020;7.772;2022-12-10T03:36:54;21.97;;;15.60;;
19664;SDS011;9980;51.020;7.772;2022-12-10T03:39:22;24.27;;;17.00;;
19664;SDS011;9980;51.020;7.772;2022-12-10T03:41:49;24.53;;;17.40;;
19664;SDS011;9980;51.020;7.772;2022-12-10T03:44:26;24.00;;;17.30;;
19664;SDS011;9980;51.020;7.772;2022-12-10T03:46:57;20.40;;;15.50;;
19664;SDS011;9980;51.020;7.772;2022-12-10T03:49:24;19.00;;;14.23;;
19664;SDS011;9980;51.020;7.772;2022-12-10T03:51:50;19.37;;;14.87;;
19664;SDS011;9980;51.020;7.772;2022-12-10T03:54:18;24.77;;;17.23;;
19664;SDS011;9980;51.020;7.772;2022-12-10T03:56:44;22.70;;;16.50;;
19664;SDS011;9980;51.020;7.772;2022-12-10T03:59:10;24.33;;;17.03;;
19664;SDS011;9980;51.020;7.772;2022-12-10T04:01:36;26.20;;;17.13;;
19664;SDS011;9980;51.020;7.772;2022-12-10T04:04:04;25.10;;;17.33;;
19664;SDS011;9980;51.020;7.772;2022-12-10T04:06:31;28.37;;;18.73;;
19664;SDS011;9980;51.020;7.772;2022-12-10T04:08:58;23.37;;;16.83;;
19664;SDS011;9980;51.020;7.772;2022-12-10T04:11:24;23.33;;;16.70;;
19664;SDS011;9980;51.020;7.772;2022-12-10T04:13:51;23.20;;;17.17;;
19664;SDS011;9980;51.020;7.772;2022-12-10T04:16:36;21.77;;;16.20;;
19664;SDS011;9980;51.020;7.772;2022-12-10T04:19:05;23.00;;;16.03;;
19664;SDS011;9980;51.020;7.772;2022-12-10T04:21:37;23.00;;;17.03;;
19664;SDS011;9980;51.020;7.772;2022-12-10T04:24:25;21.27;;;14.17;;
19664;SDS011;9980;51.020;7.772;2022-12-10T04:27:15;24.20;;;15.10;;
19664;SDS011;9980;51.020;7.772;2022-12-10T04:29:55;21.27;;;16.30;;
19664;SDS011;9980;51.020;7.772;2022-12-10T04:32:23;23.20;;;16.10;;
19664;SDS011;9980;51.020;7.772;2022-12-10T04:34:52;23.97;;;16.87;;
19664;SDS011;9980;51.020;7.772;2022-12-10T04:37:19;21.07;;;15.70;;
19664;SDS011;9980;51.020;7.772;2022-12-10T04:39:46;17.87;;;14.43;;
19664;SDS011;9980;51.020;7.772;2022-12-10T04:42:14;26.63;;;15.57;;
19664;SDS011;9980;51.020;7.772;2022-12-10T04:44:40;20.27;;;15.33;;
19664;SDS011;9980;51.020;7.772;2022-12-10T04:47:07;24.70;;;17.77;;
19664;SDS011;9980;51.020;7.772;2022-12-10T04:49:36;22.07;;;16.00;;
19664;SDS011;9980;51.020;7.772;2022-12-10T04:52:03;25.87;;;16.90;;
19664;SDS011;9980;51.020;7.772;2022-12-10T04:54:32;26.77;;;17.90;;
19664;SDS011;9980;51.020;7.772;2022-12-10T04:57:04;29.63;;;17.63;;
19664;SDS011;9980;51.020;7.772;2022-12-10T04:59:32;27.27;;;18.03;;
19664;SDS011;9980;51.020;7.772;2022-12-10T05:01:58;25.17;;;16.37;;
19664;SDS011;9980;51.020;7.772;2022-12-10T05:04:24;23.63;;;16.87;;
19664;SDS011;9980;51.020;7.772;2022-12-10T05:06:51;21.43;;;16.23;;
19664;SDS011;9980;51.020;7.772;2022-12-10T05:09:17;22.90;;;16.23;;
19664;SDS011;9980;51.020;7.772;2022-12-10T05:11:43;20.67;;;16.20;;
19664;SDS011;9980;51.020;7.772;2022-12-10T05:14:10;22.27;;;16.53;;
19664;SDS011;9980;51.020;7.772;2022-12-10T05:16:38;23.00;;;16.03;;
19664;SDS011;9980;51.020;7.772;2022-12-10T05:19:05;24.33;;;16.60;;
19664;SDS011;9980;51.020;7.772;2022-12-10T05:21:32;25.90;;;17.40;;
19664;SDS011;9980;51.020;7.772;2022-12-10T05:24:17;26.57;;;17.30;;
19664;SDS011;9980;51.020;7.772;2022-12-10T05:26:44;23.50;;;16.80;;
19664;SDS011;9980;51.020;7.772;2022-12-10T05:29:11;26.07;;;18.33;;
19664;SDS011;9980;51.020;7.772;2022-12-10T05:31:38;25.57;;;17.60;;
19664;SDS011;9980;51.020;7.772;2022-12-10T05:34:05;25.20;;;16.70;;
19664;SDS011;9980;51.020;7.772;2022-12-10T05:36:33;24.60;;;16.20;;
19664;SDS011;9980;51.020;7.772;2022-12-10T05:38:59;24.33;;;16.67;;
19664;SDS011;9980;51.020;7.772;2022-12-10T05:41:27;22.50;;;16.03;;
19664;SDS011;9980;51.020;7.772;2022-12-10T05:43:57;22.27;;;16.10;;
19664;SDS011;9980;51.020;7.772;2022-12-10T05:46:25;21.80;;;15.83;;
19664;SDS011;9980;51.020;7.772;2022-12-10T05:48:54;24.10;;;16.20;;
19664;SDS011;9980;51.020;7.772;2022-12-10T05:51:22;21.53;;;15.70;;
19664;SDS011;9980;51.020;7.772;2022-12-10T05:53:52;18.77;;;13.97;;
19664;SDS011;9980;51.020;7.772;2022-12-10T05:56:20;19.97;;;14.97;;
19664;SDS011;9980;51.020;7.772;2022-12-10T05:58:52;19.63;;;14.57;;
19664;SDS011;9980;51.020;7.772;2022-12-10T06:01:25;21.70;;;16.03;;
19664;SDS011;9980;51.020;7.772;2022-12-10T06:03:56;22.67;;;15.30;;
19664;SDS011;9980;51.020;7.772;2022-12-10T06:06:29;20.77;;;14.67;;
19664;SDS011;9980;51.020;7.772;2022-12-10T06:09:02;23.30;;;15.70;;
19664;SDS011;9980;51.020;7.772;2022-12-10T06:11:30;29.23;;;17.10;;
19664;SDS011;9980;51.020;7.772;2022-12-10T06:13:58;24.80;;;17.43;;
19664;SDS011;9980;51.020;7.772;2022-12-10T06:16:25;25.60;;;17.40;;
19664;SDS011;9980;51.020;7.772;2022-12-10T06:18:53;24.53;;;16.53;;
19664;SDS011;9980;51.020;7.772;2022-12-10T06:21:21;22.97;;;17.23;;
19664;SDS011;9980;51.020;7.772;2022-12-10T06:23:48;22.97;;;15.33;;
19664;SDS011;9980;51.020;7.772;2022-12-10T06:26:18;25.17;;;17.17;;
19664;SDS011;9980;51.020;7.772;2022-12-10T06:28:48;25.50;;;17.77;;
19664;SDS011;9980;51.020;7.772;2022-12-10T06:31:16;25.00;;;16.57;;
19664;SDS011;9980;51.020;7.772;2022-12-10T06:33:44;25.00;;;17.90;;
19664;SDS011;9980;51.020;7.772;2022-12-10T06:36:13;24.47;;;17.83;;
19664;SDS011;9980;51.020;7.772;2022-12-10T06:38:42;24.63;;;15.87;;
19664;SDS011;9980;51.020;7.772;2022-12-10T06:41:10;25.00;;;17.57;;
19664;SDS011;9980;51.020;7.772;2022-12-10T06:43:38;24.63;;;16.20;;
19664;SDS011;9980;51.020;7.772;2022-12-10T06:46:05;28.73;;;18.13;;
19664;SDS011;9980;51.020;7.772;2022-12-10T06:48:38;26.47;;;16.53;;
19664;SDS011;9980;51.020;7.772;2022-12-10T06:51:05;24.10;;;16.93;;
19664;SDS011;9980;51.020;7.772;2022-12-10T06:53:33;28.13;;;18.07;;
19664;SDS011;9980;51.020;7.772;2022-12-10T06:56:02;23.87;;;15.37;;
19664;SDS011;9980;51.020;7.772;2022-12-10T06:58:32;27.17;;;17.83;;
19664;SDS011;9980;51.020;7.772;2022-12-10T07:01:03;26.03;;;17.63;;
19664;SDS011;9980;51.020;7.772;2022-12-10T07:03:31;25.90;;;17.40;;
19664;SDS011;9980;51.020;7.772;2022-12-10T07:06:01;27.83;;;17.23;;
19664;SDS011;9980;51.020;7.772;2022-12-10T07:08:28;25.07;;;17.20;;
19664;SDS011;9980;51.020;7.772;2022-12-10T07:10:55;27.87;;;18.10;;
19664;SDS011;9980;51.020;7.772;2022-12-10T07:13:22;22.60;;;15.40;;
19664;SDS011;9980;51.020;7.772;2022-12-10T07:15:55;23.57;;;16.63;;
19664;SDS011;9980;51.020;7.772;2022-12-10T07:18:22;24.33;;;16.50;;
19664;SDS011;9980;51.020;7.772;2022-12-10T07:20:49;21.93;;;16.57;;
19664;SDS011;9980;51.020;7.772;2022-12-10T07:23:15;23.57;;;16.07;;
19664;SDS011;9980;51.020;7.772;2022-12-10T07:25:42;20.70;;;15.73;;
19664;SDS011;9980;51.020;7.772;2022-12-10T07:28:08;26.40;;;17.10;;
19664;SDS011;9980;51.020;7.772;2022-12-10T07:30:34;27.47;;;21.87;;
19664;SDS011;9980;51.020;7.772;2022-12-10T07:33:00;27.57;;;19.63;;
19664;SDS011;9980;51.020;7.772;2022-12-10T07:35:27;25.90;;;16.60;;
19664;SDS011;9980;51.020;7.772;2022-12-10T07:37:53;21.83;;;16.13;;
19664;SDS011;9980;51.020;7.772;2022-12-10T07:40:19;20.13;;;14.70;;
19664;SDS011;9980;51.020;7.772;2022-12-10T07:42:45;21.87;;;15.23;;
19664;SDS011;9980;51.020;7.772;2022-12-10T07:45:12;22.03;;;15.63;;
19664;SDS011;9980;51.020;7.772;2022-12-10T07:47:39;19.13;;;14.37;;
19664;SDS011;9980;51.020;7.772;2022-12-10T07:50:05;21.27;;;15.07;;
19664;SDS011;9980;51.020;7.772;2022-12-10T07:52:33;21.47;;;17.00;;
19664;SDS011;9980;51.020;7.772;2022-12-10T07:54:59;21.93;;;16.17;;
19664;SDS011;9980;51.020;7.772;2022-12-10T07:57:25;21.63;;;16.20;;
19664;SDS011;9980;51.020;7.772;2022-12-10T07:59:54;20.53;;;15.10;;
19664;SDS011;9980;51.020;7.772;2022-12-10T08:02:20;23.57;;;17.37;;
19664;SDS011;9980;51.020;7.772;2022-12-10T08:04:51;23.13;;;15.97;;
19664;SDS011;9980;51.020;7.772;2022-12-10T08:07:17;23.43;;;17.83;;
19664;SDS011;9980;51.020;7.772;2022-12-10T08:09:43;20.80;;;15.73;;
19664;SDS011;9980;51.020;7.772;2022-12-10T08:12:09;22.80;;;18.10;;
19664;SDS011;9980;51.020;7.772;2022-12-10T08:14:35;22.83;;;17.67;;
19664;SDS011;9980;51.020;7.772;2022-12-10T08:17:02;19.50;;;14.03;;
19664;SDS011;9980;51.020;7.772;2022-12-10T08:19:28;20.37;;;15.27;;
19664;SDS011;9980;51.020;7.772;2022-12-10T08:21:57;21.93;;;15.03;;
19664;SDS011;9980;51.020;7.772;2022-12-10T08:24:23;19.13;;;13.70;;
19664;SDS011;9980;51.020;7.772;2022-12-10T08:26:49;20.63;;;14.57;;
19664;SDS011;9980;51.020;7.772;2022-12-10T08:29:16;20.03;;;14.60;;
19664;SDS011;9980;51.020;7.772;2022-12-10T08:31:42;19.30;;;15.13;;
19664;SDS011;9980;51.020;7.772;2022-12-10T08:34:12;22.30;;;15.60;;
19664;SDS011;9980;51.020;7.772;2022-12-10T08:36:40;20.03;;;13.87;;
19664;SDS011;9980;51.020;7.772;2022-12-10T08:39:07;21.60;;;14.47;;
19664;SDS011;9980;51.020;7.772;2022-12-10T08:41:36;15.00;;;12.90;;
19664;SDS011;9980;51.020;7.772;2022-12-10T08:44:02;18.37;;;14.37;;
19664;SDS011;9980;51.020;7.772;2022-12-10T08:46:28;17.40;;;13.87;;
19664;SDS011;9980;51.020;7.772;2022-12-10T08:48:56;19.30;;;13.43;;
19664;SDS011;9980;51.020;7.772;2022-12-10T08:51:23;22.00;;;14.00;;
19664;SDS011;9980;51.020;7.772;2022-12-10T08:53:49;20.00;;;14.73;;
19664;SDS011;9980;51.020;7.772;2022-12-10T08:56:15;20.03;;;14.00;;
19664;SDS011;9980;51.020;7.772;2022-12-10T08:58:42;18.93;;;13.67;;
19664;SDS011;9980;51.020;7.772;2022-12-10T09:01:14;19.77;;;13.60;;
19664;SDS011;9980;51.020;7.772;2022-12-10T09:03:43;18.77;;;13.33;;
19664;SDS011;9980;51.020;7.772;2022-12-10T09:06:12;19.07;;;14.00;;
19664;SDS011;9980;51.020;7.772;2022-12-10T09:08:42;20.93;;;15.53;;
19664;SDS011;9980;51.020;7.772;2022-12-10T09:11:28;20.43;;;14.17;;
19664;SDS011;9980;51.020;7.772;2022-12-10T09:14:00;19.60;;;15.07;;
19664;SDS011;9980;51.020;7.772;2022-12-10T09:16:31;18.13;;;14.40;;
19664;SDS011;9980;51.020;7.772;2022-12-10T09:19:01;21.10;;;15.47;;
19664;SDS011;9980;51.020;7.772;2022-12-10T09:21:29;21.93;;;15.50;;
19664;SDS011;9980;51.020;7.772;2022-12-10T09:23:56;19.93;;;15.20;;
19664;SDS011;9980;51.020;7.772;2022-12-10T09:26:23;22.93;;;16.17;;
19664;SDS011;9980;51.020;7.772;2022-12-10T09:28:50;23.23;;;15.97;;
19664;SDS011;9980;51.020;7.772;2022-12-10T09:31:17;21.03;;;14.87;;
19664;SDS011;9980;51.020;7.772;2022-12-10T09:33:47;21.87;;;15.93;;
19664;SDS011;9980;51.020;7.772;2022-12-10T09:36:15;21.93;;;15.03;;
19664;SDS011;9980;51.020;7.772;2022-12-10T09:38:43;23.67;;;16.63;;
19664;SDS011;9980;51.020;7.772;2022-12-10T09:42:01;21.93;;;16.73;;
19664;SDS011;9980;51.020;7.772;2022-12-10T09:44:28;19.77;;;14.70;;
19664;SDS011;9980;51.020;7.772;2022-12-10T09:47:09;22.43;;;15.53;;
19664;SDS011;9980;51.020;7.772;2022-12-10T09:49:39;22.23;;;16.77;;
19664;SDS011;9980;51.020;7.772;2022-12-10T09:52:45;22.67;;;16.57;;
19664;SDS011;9980;51.020;7.772;2022-12-10T09:55:16;23.20;;;17.33;;
19664;SDS011;9980;51.020;7.772;2022-12-10T09:57:50;26.10;;;18.27;;
19664;SDS011;9980;51.020;7.772;2022-12-10T10:00:26;26.30;;;17.97;;
19664;SDS011;9980;51.020;7.772;2022-12-10T10:02:56;24.10;;;17.27;;
19664;SDS011;9980;51.020;7.772;2022-12-10T10:05:28;22.40;;;16.57;;
19664;SDS011;9980;51.020;7.772;2022-12-10T10:10:58;24.27;;;16.97;;
19664;SDS011;9980;51.020;7.772;2022-12-10T10:16:43;20.70;;;15.23;;
19664;SDS011;9980;51.020;7.772;2022-12-10T10:19:26;20.53;;;14.97;;
19664;SDS011;9980;51.020;7.772;2022-12-10T10:22:03;23.10;;;16.37;;
19664;SDS011;9980;51.020;7.772;2022-12-10T10:24:35;22.07;;;16.03;;
19664;SDS011;9980;51.020;7.772;2022-12-10T10:27:22;25.27;;;18.33;;
19664;SDS011;9980;51.020;7.772;2022-12-10T10:29:54;22.80;;;16.50;;
19664;SDS011;9980;51.020;7.772;2022-12-10T10:32:28;20.73;;;14.97;;
19664;SDS011;9980;51.020;7.772;2022-12-10T10:35:22;21.70;;;15.93;;
19664;SDS011;9980;51.020;7.772;2022-12-10T10:37:57;20.90;;;16.00;;
19664;SDS011;9980;51.020;7.772;2022-12-10T10:40:33;24.33;;;16.97;;
19664;SDS011;9980;51.020;7.772;2022-12-10T10:43:12;22.47;;;14.53;;
19664;SDS011;9980;51.020;7.772;2022-12-10T10:46:15;20.00;;;14.50;;
19664;SDS011;9980;51.020;7.772;2022-12-10T10:48:50;19.77;;;15.60;;
19664;SDS011;9980;51.020;7.772;2022-12-10T10:51:20;19.67;;;15.43;;
19664;SDS011;9980;51.020;7.772;2022-12-10T10:53:51;22.70;;;15.30;;
19664;SDS011;9980;51.020;7.772;2022-12-10T11:01:46;21.90;;;15.77;;
19664;SDS011;9980;51.020;7.772;2022-12-10T11:04:17;22.97;;;15.90;;
19664;SDS011;9980;51.020;7.772;2022-12-10T11:06:59;23.70;;;16.83;;
19664;SDS011;9980;51.020;7.772;2022-12-10T11:09:29;23.23;;;17.00;;
19664;SDS011;9980;51.020;7.772;2022-12-10T11:12:02;24.67;;;17.37;;
19664;SDS011;9980;51.020;7.772;2022-12-10T11:14:46;28.37;;;19.10;;
19664;SDS011;9980;51.020;7.772;2022-12-10T11:17:17;27.03;;;19.67;;
19664;SDS011;9980;51.020;7.772;2022-12-10T11:24:59;26.77;;;18.73;;
19664;SDS011;9980;51.020;7.772;2022-12-10T11:30:14;22.83;;;17.50;;
19664;SDS011;9980;51.020;7.772;2022-12-10T11:32:54;23.63;;;17.30;;
19664;SDS011;9980;51.020;7.772;2022-12-10T11:35:50;26.10;;;17.40;;
19664;SDS011;9980;51.020;7.772;2022-12-10T11:50:50;22.70;;;15.90;;
19664;SDS011;9980;51.020;7.772;2022-12-10T11:53:52;25.87;;;18.37;;
19664;SDS011;9980;51.020;7.772;2022-12-10T11:56:22;24.00;;;17.30;;
19664;SDS011;9980;51.020;7.772;2022-12-10T11:59:17;25.93;;;20.57;;
19664;SDS011;9980;51.020;7.772;2022-12-10T12:02:36;18.53;;;15.13;;
19664;SDS011;9980;51.020;7.772;2022-12-10T12:05:27;25.63;;;18.77;;
19664;SDS011;9980;51.020;7.772;2022-12-10T12:13:47;20.50;;;15.03;;
19664;SDS011;9980;51.020;7.772;2022-12-10T12:16:30;21.03;;;13.63;;
19664;SDS011;9980;51.020;7.772;2022-12-10T12:21:34;20.60;;;13.73;;
19664;SDS011;9980;51.020;7.772;2022-12-10T12:24:03;21.10;;;14.77;;
19664;SDS011;9980;51.020;7.772;2022-12-10T12:26:38;22.80;;;15.90;;
19664;SDS011;9980;51.020;7.772;2022-12-10T12:29:29;22.27;;;15.90;;
19664;SDS011;9980;51.020;7.772;2022-12-10T12:32:10;22.23;;;15.83;;
19664;SDS011;9980;51.020;7.772;2022-12-10T12:37:38;20.77;;;14.60;;
19664;SDS011;9980;51.020;7.772;2022-12-10T12:40:27;23.53;;;15.93;;
19664;SDS011;9980;51.020;7.772;2022-12-10T12:43:09;24.60;;;15.53;;
19664;SDS011;9980;51.020;7.772;2022-12-10T12:45:44;19.67;;;14.83;;
19664;SDS011;9980;51.020;7.772;2022-12-10T12:48:27;21.10;;;13.60;;
19664;SDS011;9980;51.020;7.772;2022-12-10T12:51:17;19.73;;;13.23;;
19664;SDS011;9980;51.020;7.772;2022-12-10T12:54:00;23.30;;;15.00;;
19664;SDS011;9980;51.020;7.772;2022-12-10T12:59:12;23.80;;;15.63;;
19664;SDS011;9980;51.020;7.772;2022-12-10T13:05:29;24.80;;;18.17;;
19664;SDS011;9980;51.020;7.772;2022-12-10T13:14:02;23.77;;;17.20;;
19664;SDS011;9980;51.020;7.772;2022-12-10T13:21:57;22.23;;;15.70;;
19664;SDS011;9980;51.020;7.772;2022-12-10T13:29:52;20.63;;;14.80;;
19664;SDS011;9980;51.020;7.772;2022-12-10T13:32:45;21.43;;;15.67;;
19664;SDS011;9980;51.020;7.772;2022-12-10T13:43:25;20.33;;;14.87;;
19664;SDS011;9980;51.020;7.772;2022-12-10T13:46:56;23.70;;;15.83;;
19664;SDS011;9980;51.020;7.772;2022-12-10T13:49:30;21.90;;;15.30;;
19664;SDS011;9980;51.020;7.772;2022-12-10T13:52:26;20.13;;;14.27;;
19664;SDS011;9980;51.020;7.772;2022-12-10T14:01:16;20.97;;;14.63;;
19664;SDS011;9980;51.020;7.772;2022-12-10T14:07:10;19.83;;;14.53;;
19664;SDS011;9980;51.020;7.772;2022-12-10T14:09:51;23.87;;;15.43;;
19664;SDS011;9980;51.020;7.772;2022-12-10T14:12:27;22.77;;;16.33;;
19664;SDS011;9980;51.020;7.772;2022-12-10T14:15:17;22.87;;;16.03;;
19664;SDS011;9980;51.020;7.772;2022-12-10T14:17:48;20.37;;;15.40;;
19664;SDS011;9980;51.020;7.772;2022-12-10T14:20:25;22.37;;;15.53;;
19664;SDS011;9980;51.020;7.772;2022-12-10T14:22:54;24.10;;;16.37;;
19664;SDS011;9980;51.020;7.772;2022-12-10T14:25:41;23.40;;;15.23;;
19664;SDS011;9980;51.020;7.772;2022-12-10T14:28:13;24.17;;;15.47;;
19664;SDS011;9980;51.020;7.772;2022-12-10T14:30:45;23.63;;;17.00;;
19664;SDS011;9980;51.020;7.772;2022-12-10T14:33:17;24.00;;;16.43;;
19664;SDS011;9980;51.020;7.772;2022-12-10T14:35:48;21.67;;;15.67;;
19664;SDS011;9980;51.020;7.772;2022-12-10T14:38:20;22.67;;;15.80;;
19664;SDS011;9980;51.020;7.772;2022-12-10T14:40:58;19.50;;;14.90;;
19664;SDS011;9980;51.020;7.772;2022-12-10T14:43:36;24.23;;;16.47;;
19664;SDS011;9980;51.020;7.772;2022-12-10T14:46:05;24.63;;;16.17;;
19664;SDS011;9980;51.020;7.772;2022-12-10T14:48:53;20.83;;;14.97;;
19664;SDS011;9980;51.020;7.772;2022-12-10T14:51:24;23.93;;;15.53;;
19664;SDS011;9980;51.020;7.772;2022-12-10T14:53:57;23.03;;;15.10;;
19664;SDS011;9980;51.020;7.772;2022-12-10T14:56:33;22.50;;;15.90;;
19664;SDS011;9980;51.020;7.772;2022-12-10T14:59:19;23.93;;;16.23;;
19664;SDS011;9980;51.020;7.772;2022-12-10T15:02:22;20.23;;;14.73;;
19664;SDS011;9980;51.020;7.772;2022-12-10T15:04:56;20.20;;;15.23;;
19664;SDS011;9980;51.020;7.772;2022-12-10T15:07:24;22.27;;;15.00;;
19664;SDS011;9980;51.020;7.772;2022-12-10T15:10:00;23.63;;;16.50;;
19664;SDS011;9980;51.020;7.772;2022-12-10T15:12:40;24.17;;;16.00;;
19664;SDS011;9980;51.020;7.772;2022-12-10T15:15:13;20.37;;;15.57;;
19664;SDS011;9980;51.020;7.772;2022-12-10T15:20:31;23.83;;;15.03;;
19664;SDS011;9980;51.020;7.772;2022-12-10T15:23:30;23.77;;;16.57;;
19664;SDS011;9980;51.020;7.772;2022-12-10T15:29:14;26.10;;;17.03;;
19664;SDS011;9980;51.020;7.772;2022-12-10T15:31:55;23.17;;;15.30;;
19664;SDS011;9980;51.020;7.772;2022-12-10T15:34:46;26.67;;;16.77;;
19664;SDS011;9980;51.020;7.772;2022-12-10T15:37:19;20.00;;;14.33;;
19664;SDS011;9980;51.020;7.772;2022-12-10T15:39:54;23.27;;;16.37;;
19664;SDS011;9980;51.020;7.772;2022-12-10T15:45:01;24.40;;;16.73;;
19664;SDS011;9980;51.020;7.772;2022-12-10T15:48:03;20.73;;;15.17;;
19664;SDS011;9980;51.020;7.772;2022-12-10T15:50:38;25.57;;;17.90;;
19664;SDS011;9980;51.020;7.772;2022-12-10T15:53:12;22.87;;;16.63;;
19664;SDS011;9980;51.020;7.772;2022-12-10T15:55:47;23.63;;;16.73;;
19664;SDS011;9980;51.020;7.772;2022-12-10T15:58:13;24.43;;;16.57;;
19664;SDS011;9980;51.020;7.772;2022-12-10T16:00:40;32.53;;;20.70;;
19664;SDS011;9980;51.020;7.772;2022-12-10T16:03:10;29.17;;;19.60;;
19664;SDS011;9980;51.020;7.772;2022-12-10T16:05:39;22.23;;;15.53;;
19664;SDS011;9980;51.020;7.772;2022-12-10T16:08:13;30.43;;;18.53;;
19664;SDS011;9980;51.020;7.772;2022-12-10T16:10:41;29.10;;;18.27;;
19664;SDS011;9980;51.020;7.772;2022-12-10T16:13:44;28.53;;;18.67;;
19664;SDS011;9980;51.020;7.772;2022-12-10T16:16:06;25.57;;;17.47;;
19664;SDS011;9980;51.020;7.772;2022-12-10T16:18:35;28.57;;;18.67;;
19664;SDS011;9980;51.020;7.772;2022-12-10T16:21:03;31.33;;;19.67;;
19664;SDS011;9980;51.020;7.772;2022-12-10T16:23:31;32.97;;;20.20;;
19664;SDS011;9980;51.020;7.772;2022-12-10T16:25:58;35.27;;;20.57;;
19664;SDS011;9980;51.020;7.772;2022-12-10T16:28:26;33.53;;;20.00;;
19664;SDS011;9980;51.020;7.772;2022-12-10T16:30:53;29.53;;;19.57;;
19664;SDS011;9980;51.020;7.772;2022-12-10T16:33:23;23.87;;;17.57;;
19664;SDS011;9980;51.020;7.772;2022-12-10T16:35:52;36.07;;;19.30;;
19664;SDS011;9980;51.020;7.772;2022-12-10T16:38:19;32.57;;;19.93;;
19664;SDS011;9980;51.020;7.772;2022-12-10T16:40:47;28.80;;;19.80;;
19664;SDS011;9980;51.020;7.772;2022-12-10T16:43:15;31.07;;;21.17;;
19664;SDS011;9980;51.020;7.772;2022-12-10T16:45:49;27.40;;;18.17;;
19664;SDS011;9980;51.020;7.772;2022-12-10T16:48:17;28.23;;;19.23;;
19664;SDS011;9980;51.020;7.772;2022-12-10T16:50:44;31.47;;;20.47;;
19664;SDS011;9980;51.020;7.772;2022-12-10T16:53:21;33.77;;;20.00;;
19664;SDS011;9980;51.020;7.772;2022-12-10T16:55:52;29.83;;;19.50;;
19664;SDS011;9980;51.020;7.772;2022-12-10T16:58:21;29.50;;;19.33;;
19664;SDS011;9980;51.020;7.772;2022-12-10T17:00:50;31.10;;;20.43;;
19664;SDS011;9980;51.020;7.772;2022-12-10T17:03:20;29.80;;;20.20;;
19664;SDS011;9980;51.020;7.772;2022-12-10T17:05:57;30.57;;;20.07;;
19664;SDS011;9980;51.020;7.772;2022-12-10T17:08:28;38.37;;;26.27;;
19664;SDS011;9980;51.020;7.772;2022-12-10T17:10:55;35.13;;;21.70;;